sensor_id;sensor_type;location;lat;lon;timestamp;temperature;humidity
66740;DHT22;53653;52.188;8.602;2023-06-14T00:00:14;17.38;53.80
66740;DHT22;53653;52.188;8.602;2023-06-14T00:02:40;17.30;53.98
66740;DHT22;53653;52.188;8.602;2023-06-14T00:05:07;17.31;54.04
66740;DHT22;53653;52.188;8.602;2023-06-14T00:07:40;17.26;54.29
66740;DHT22;53653;52.188;8.602;2023-06-14T00:10:12;17.17;54.57
66740;DHT22;53653;52.188;8.602;2023-06-14T00:12:38;17.13;54.75
66740;DHT22;53653;52.188;8.602;2023-06-14T00:15:04;17.13;54.73
66740;DHT22;53653;52.188;8.602;2023-06-14T00:17:30;17.06;55.11
66740;DHT22;53653;52.188;8.602;2023-06-14T00:19:59;17.00;55.18
66740;DHT22;53653;52.188;8.602;2023-06-14T00:22:25;17.04;55.12
66740;DHT22;53653;52.188;8.602;2023-06-14T00:24:54;17.00;55.23
66740;DHT22;53653;52.188;8.602;2023-06-14T00:27:19;16.96;55.55
66740;DHT22;53653;52.188;8.602;2023-06-14T00:29:45;16.90;55.74
66740;DHT22;53653;52.188;8.602;2023-06-14T00:32:10;16.89;55.72
66740;DHT22;53653;52.188;8.602;2023-06-14T00:34:36;16.90;55.76
66740;DHT22;53653;52.188;8.602;2023-06-14T00:37:01;16.81;56.03
66740;DHT22;53653;52.188;8.602;2023-06-14T00:39:27;16.79;56.21
66740;DHT22;53653;52.188;8.602;2023-06-14T00:41:53;16.73;56.37
66740;DHT22;53653;52.188;8.602;2023-06-14T00:44:19;16.69;56.64
66740;DHT22;53653;52.188;8.602;2023-06-14T00:46:45;16.63;56.74
66740;DHT22;53653;52.188;8.602;2023-06-14T00:49:12;16.59;57.02
66740;DHT22;53653;52.188;8.602;2023-06-14T00:51:41;16.59;57.11
66740;DHT22;53653;52.188;8.602;2023-06-14T00:54:06;16.56;57.15
66740;DHT22;53653;52.188;8.602;2023-06-14T00:56:32;16.51;57.46
66740;DHT22;53653;52.188;8.602;2023-06-14T00:58:58;16.48;57.68
66740;DHT22;53653;52.188;8.602;2023-06-14T01:01:23;16.42;57.81
66740;DHT22;53653;52.188;8.602;2023-06-14T01:03:49;16.42;57.94
66740;DHT22;53653;52.188;8.602;2023-06-14T01:12:16;16.42;58.21
66740;DHT22;53653;52.188;8.602;2023-06-14T01:14:42;16.36;58.37
66740;DHT22;53653;52.188;8.602;2023-06-14T01:17:08;16.33;58.46
66740;DHT22;53653;52.188;8.602;2023-06-14T01:19:41;16.29;58.59
66740;DHT22;53653;52.188;8.602;2023-06-14T01:22:08;16.29;58.72
66740;DHT22;53653;52.188;8.602;2023-06-14T01:24:33;16.29;58.81
66740;DHT22;53653;52.188;8.602;2023-06-14T01:27:00;16.24;58.93
66740;DHT22;53653;52.188;8.602;2023-06-14T01:29:28;16.20;59.10
66740;DHT22;53653;52.188;8.602;2023-06-14T01:32:02;16.10;59.50
66740;DHT22;53653;52.188;8.602;2023-06-14T01:34:30;16.12;59.57
66740;DHT22;53653;52.188;8.602;2023-06-14T01:36:56;16.04;59.72
66740;DHT22;53653;52.188;8.602;2023-06-14T01:39:22;16.04;59.80
66740;DHT22;53653;52.188;8.602;2023-06-14T01:41:48;16.10;59.73
66740;DHT22;53653;52.188;8.602;2023-06-14T01:44:16;16.01;59.93
66740;DHT22;53653;52.188;8.602;2023-06-14T01:46:42;16.00;60.08
66740;DHT22;53653;52.188;8.602;2023-06-14T01:49:08;16.01;60.15
66740;DHT22;53653;52.188;8.602;2023-06-14T01:51:34;15.98;60.24
66740;DHT22;53653;52.188;8.602;2023-06-14T01:54:00;15.98;60.30
66740;DHT22;53653;52.188;8.602;2023-06-14T01:56:26;15.94;60.51
66740;DHT22;53653;52.188;8.602;2023-06-14T01:58:52;15.84;60.72
66740;DHT22;53653;52.188;8.602;2023-06-14T02:01:20;15.87;60.71
66740;DHT22;53653;52.188;8.602;2023-06-14T02:03:47;15.79;61.09
66740;DHT22;53653;52.188;8.602;2023-06-14T02:06:15;15.76;61.18
66740;DHT22;53653;52.188;8.602;2023-06-14T02:08:41;15.76;61.30
66740;DHT22;53653;52.188;8.602;2023-06-14T02:11:07;15.70;61.44
66740;DHT22;53653;52.188;8.602;2023-06-14T02:13:34;15.73;61.40
66740;DHT22;53653;52.188;8.602;2023-06-14T02:16:00;15.66;61.58
66740;DHT22;53653;52.188;8.602;2023-06-14T02:18:27;15.63;61.81
66740;DHT22;53653;52.188;8.602;2023-06-14T02:20:54;15.62;61.84
66740;DHT22;53653;52.188;8.602;2023-06-14T02:23:19;15.59;61.82
66740;DHT22;53653;52.188;8.602;2023-06-14T02:25:45;15.52;61.83
66740;DHT22;53653;52.188;8.602;2023-06-14T02:28:11;15.46;61.93
66740;DHT22;53653;52.188;8.602;2023-06-14T02:30:38;15.47;61.87
66740;DHT22;53653;52.188;8.602;2023-06-14T02:33:04;15.46;61.79
66740;DHT22;53653;52.188;8.602;2023-06-14T02:35:31;15.42;61.78
66740;DHT22;53653;52.188;8.602;2023-06-14T02:37:57;15.39;61.89
66740;DHT22;53653;52.188;8.602;2023-06-14T02:40:23;15.35;61.97
66740;DHT22;53653;52.188;8.602;2023-06-14T02:42:48;15.31;62.23
66740;DHT22;53653;52.188;8.602;2023-06-14T02:45:14;15.15;62.55
66740;DHT22;53653;52.188;8.602;2023-06-14T02:47:40;15.11;62.79
66740;DHT22;53653;52.188;8.602;2023-06-14T02:50:06;15.05;63.03
66740;DHT22;53653;52.188;8.602;2023-06-14T02:52:33;14.98;63.23
66740;DHT22;53653;52.188;8.602;2023-06-14T02:54:59;14.96;63.30
66740;DHT22;53653;52.188;8.602;2023-06-14T02:57:25;14.92;63.45
66740;DHT22;53653;52.188;8.602;2023-06-14T02:59:51;14.94;63.49
66740;DHT22;53653;52.188;8.602;2023-06-14T03:02:18;14.88;63.62
66740;DHT22;53653;52.188;8.602;2023-06-14T03:04:44;14.87;63.79
66740;DHT22;53653;52.188;8.602;2023-06-14T03:07:14;14.84;63.98
66740;DHT22;53653;52.188;8.602;2023-06-14T03:09:46;14.84;64.08
66740;DHT22;53653;52.188;8.602;2023-06-14T03:12:12;14.83;64.14
66740;DHT22;53653;52.188;8.602;2023-06-14T03:14:38;14.83;64.21
66740;DHT22;53653;52.188;8.602;2023-06-14T03:17:06;14.73;64.61
66740;DHT22;53653;52.188;8.602;2023-06-14T03:19:35;14.73;64.61
66740;DHT22;53653;52.188;8.602;2023-06-14T03:22:02;14.70;64.80
66740;DHT22;53653;52.188;8.602;2023-06-14T03:24:30;14.68;64.90
66740;DHT22;53653;52.188;8.602;2023-06-14T03:26:58;14.60;65.17
66740;DHT22;53653;52.188;8.602;2023-06-14T03:29:25;14.57;65.31
66740;DHT22;53653;52.188;8.602;2023-06-14T03:32:00;14.54;65.45
66740;DHT22;53653;52.188;8.602;2023-06-14T03:34:32;14.51;65.52
66740;DHT22;53653;52.188;8.602;2023-06-14T03:36:58;14.54;65.40
66740;DHT22;53653;52.188;8.602;2023-06-14T03:39:24;14.56;65.58
66740;DHT22;53653;52.188;8.602;2023-06-14T03:41:50;14.46;65.68
66740;DHT22;53653;52.188;8.602;2023-06-14T03:44:17;14.47;65.92
66740;DHT22;53653;52.188;8.602;2023-06-14T03:46:47;14.47;65.84
66740;DHT22;53653;52.188;8.602;2023-06-14T03:49:13;14.47;65.97
66740;DHT22;53653;52.188;8.602;2023-06-14T03:51:39;14.44;66.07
66740;DHT22;53653;52.188;8.602;2023-06-14T03:54:05;14.47;66.14
66740;DHT22;53653;52.188;8.602;2023-06-14T03:56:32;14.48;66.17
66740;DHT22;53653;52.188;8.602;2023-06-14T03:58:58;14.44;66.26
66740;DHT22;53653;52.188;8.602;2023-06-14T04:01:26;14.53;66.13
66740;DHT22;53653;52.188;8.602;2023-06-14T04:03:57;15.06;64.64
66740;DHT22;53653;52.188;8.602;2023-06-14T04:06:24;15.53;63.07
66740;DHT22;53653;52.188;8.602;2023-06-14T04:08:58;15.81;62.17
66740;DHT22;53653;52.188;8.602;2023-06-14T04:11:27;15.84;61.91
66740;DHT22;53653;52.188;8.602;2023-06-14T04:13:53;15.83;62.19
66740;DHT22;53653;52.188;8.602;2023-06-14T04:16:19;15.81;62.33
66740;DHT22;53653;52.188;8.602;2023-06-14T04:18:45;15.93;62.24
66740;DHT22;53653;52.188;8.602;2023-06-14T04:21:12;16.18;61.54
66740;DHT22;53653;52.188;8.602;2023-06-14T04:23:37;16.22;61.51
66740;DHT22;53653;52.188;8.602;2023-06-14T04:26:03;16.17;62.01
66740;DHT22;53653;52.188;8.602;2023-06-14T04:28:30;15.96;62.50
66740;DHT22;53653;52.188;8.602;2023-06-14T04:30:58;15.69;63.12
66740;DHT22;53653;52.188;8.602;2023-06-14T04:33:28;15.52;63.96
66740;DHT22;53653;52.188;8.602;2023-06-14T04:35:54;15.36;64.37
66740;DHT22;53653;52.188;8.602;2023-06-14T04:38:21;15.42;64.32
66740;DHT22;53653;52.188;8.602;2023-06-14T04:40:52;15.49;64.31
66740;DHT22;53653;52.188;8.602;2023-06-14T04:43:19;15.54;64.03
66740;DHT22;53653;52.188;8.602;2023-06-14T04:45:50;15.49;64.17
66740;DHT22;53653;52.188;8.602;2023-06-14T04:48:17;15.49;63.85
66740;DHT22;53653;52.188;8.602;2023-06-14T04:50:45;15.49;64.35
66740;DHT22;53653;52.188;8.602;2023-06-14T04:53:10;15.73;63.68
66740;DHT22;53653;52.188;8.602;2023-06-14T04:55:36;15.83;63.47
66740;DHT22;53653;52.188;8.602;2023-06-14T04:58:04;15.93;63.49
66740;DHT22;53653;52.188;8.602;2023-06-14T05:00:30;15.94;63.02
66740;DHT22;53653;52.188;8.602;2023-06-14T05:02:56;16.00;62.83
66740;DHT22;53653;52.188;8.602;2023-06-14T05:05:22;15.84;63.33
66740;DHT22;53653;52.188;8.602;2023-06-14T05:07:48;16.02;62.83
66740;DHT22;53653;52.188;8.602;2023-06-14T05:10:14;16.22;62.42
66740;DHT22;53653;52.188;8.602;2023-06-14T05:12:40;16.20;62.28
66740;DHT22;53653;52.188;8.602;2023-06-14T05:15:09;16.52;61.59
66740;DHT22;53653;52.188;8.602;2023-06-14T05:17:35;16.52;61.54
66740;DHT22;53653;52.188;8.602;2023-06-14T05:20:01;16.41;61.75
66740;DHT22;53653;52.188;8.602;2023-06-14T05:22:27;16.63;61.48
66740;DHT22;53653;52.188;8.602;2023-06-14T05:24:52;16.62;61.73
66740;DHT22;53653;52.188;8.602;2023-06-14T05:27:18;16.72;61.51
66740;DHT22;53653;52.188;8.602;2023-06-14T05:29:43;16.93;61.15
66740;DHT22;53653;52.188;8.602;2023-06-14T05:32:09;16.99;60.97
66740;DHT22;53653;52.188;8.602;2023-06-14T05:34:35;17.10;60.29
66740;DHT22;53653;52.188;8.602;2023-06-14T05:37:00;17.07;60.37
66740;DHT22;53653;52.188;8.602;2023-06-14T05:39:26;17.13;60.86
66740;DHT22;53653;52.188;8.602;2023-06-14T05:41:51;17.06;60.03
66740;DHT22;53653;52.188;8.602;2023-06-14T05:44:16;17.23;59.88
66740;DHT22;53653;52.188;8.602;2023-06-14T05:46:43;17.17;59.37
66740;DHT22;53653;52.188;8.602;2023-06-14T05:49:09;17.41;59.31
66740;DHT22;53653;52.188;8.602;2023-06-14T05:51:34;17.17;59.39
66740;DHT22;53653;52.188;8.602;2023-06-14T05:54:00;17.62;58.99
66740;DHT22;53653;52.188;8.602;2023-06-14T05:56:26;17.66;58.50
66740;DHT22;53653;52.188;8.602;2023-06-14T05:58:51;17.59;58.20
66740;DHT22;53653;52.188;8.602;2023-06-14T06:01:17;17.54;58.80
66740;DHT22;53653;52.188;8.602;2023-06-14T06:03:43;17.42;59.23
66740;DHT22;53653;52.188;8.602;2023-06-14T06:06:12;17.71;58.19
66740;DHT22;53653;52.188;8.602;2023-06-14T06:08:37;17.78;58.23
66740;DHT22;53653;52.188;8.602;2023-06-14T06:11:03;17.51;58.65
66740;DHT22;53653;52.188;8.602;2023-06-14T06:13:29;17.76;58.62
66740;DHT22;53653;52.188;8.602;2023-06-14T06:15:54;18.23;57.67
66740;DHT22;53653;52.188;8.602;2023-06-14T06:18:21;18.40;57.26
66740;DHT22;53653;52.188;8.602;2023-06-14T06:20:47;18.09;57.94
66740;DHT22;53653;52.188;8.602;2023-06-14T06:23:12;17.89;58.41
66740;DHT22;53653;52.188;8.602;2023-06-14T06:25:38;18.12;57.94
66740;DHT22;53653;52.188;8.602;2023-06-14T06:28:03;17.83;58.61
66740;DHT22;53653;52.188;8.602;2023-06-14T06:30:29;17.79;58.99
66740;DHT22;53653;52.188;8.602;2023-06-14T06:32:54;18.26;58.14
66740;DHT22;53653;52.188;8.602;2023-06-14T06:35:21;17.97;58.44
66740;DHT22;53653;52.188;8.602;2023-06-14T06:37:46;17.87;58.06
66740;DHT22;53653;52.188;8.602;2023-06-14T06:40:12;18.22;57.27
66740;DHT22;53653;52.188;8.602;2023-06-14T06:42:37;18.40;56.53
66740;DHT22;53653;52.188;8.602;2023-06-14T06:45:05;18.60;56.06
66740;DHT22;53653;52.188;8.602;2023-06-14T06:47:31;18.69;56.03
66740;DHT22;53653;52.188;8.602;2023-06-14T06:49:56;18.55;56.04
66740;DHT22;53653;52.188;8.602;2023-06-14T06:52:22;18.55;55.45
66740;DHT22;53653;52.188;8.602;2023-06-14T06:54:47;18.40;54.79
66740;DHT22;53653;52.188;8.602;2023-06-14T06:57:14;18.55;54.49
66740;DHT22;53653;52.188;8.602;2023-06-14T06:59:40;18.34;54.80
66740;DHT22;53653;52.188;8.602;2023-06-14T07:02:06;17.99;55.32
66740;DHT22;53653;52.188;8.602;2023-06-14T07:04:31;18.16;55.69
66740;DHT22;53653;52.188;8.602;2023-06-14T07:06:57;18.45;54.81
66740;DHT22;53653;52.188;8.602;2023-06-14T07:09:22;18.27;54.12
66740;DHT22;53653;52.188;8.602;2023-06-14T07:11:48;18.40;54.13
66740;DHT22;53653;52.188;8.602;2023-06-14T07:14:13;18.68;54.47
66740;DHT22;53653;52.188;8.602;2023-06-14T07:16:39;18.43;54.15
66740;DHT22;53653;52.188;8.602;2023-06-14T07:19:04;18.60;54.40
66740;DHT22;53653;52.188;8.602;2023-06-14T07:21:30;18.64;54.17
66740;DHT22;53653;52.188;8.602;2023-06-14T07:23:56;19.02;53.13
66740;DHT22;53653;52.188;8.602;2023-06-14T07:26:22;18.89;53.41
66740;DHT22;53653;52.188;8.602;2023-06-14T07:28:48;18.60;54.51
66740;DHT22;53653;52.188;8.602;2023-06-14T07:31:17;19.03;53.00
66740;DHT22;53653;52.188;8.602;2023-06-14T07:33:45;19.22;53.02
66740;DHT22;53653;52.188;8.602;2023-06-14T07:36:11;18.78;53.79
66740;DHT22;53653;52.188;8.602;2023-06-14T07:38:37;19.05;53.42
66740;DHT22;53653;52.188;8.602;2023-06-14T07:41:03;18.81;54.37
66740;DHT22;53653;52.188;8.602;2023-06-14T07:43:29;18.99;54.45
66740;DHT22;53653;52.188;8.602;2023-06-14T07:45:54;19.15;54.46
66740;DHT22;53653;52.188;8.602;2023-06-14T07:48:20;19.08;54.31
66740;DHT22;53653;52.188;8.602;2023-06-14T07:50:46;19.19;52.89
66740;DHT22;53653;52.188;8.602;2023-06-14T07:53:12;19.16;53.28
66740;DHT22;53653;52.188;8.602;2023-06-14T07:55:38;18.95;53.24
66740;DHT22;53653;52.188;8.602;2023-06-14T07:58:06;19.74;51.52
66740;DHT22;53653;52.188;8.602;2023-06-14T08:00:31;19.06;52.14
66740;DHT22;53653;52.188;8.602;2023-06-14T08:02:57;19.53;51.05
66740;DHT22;53653;52.188;8.602;2023-06-14T08:05:28;19.40;51.08
66740;DHT22;53653;52.188;8.602;2023-06-14T08:07:54;19.34;51.58
66740;DHT22;53653;52.188;8.602;2023-06-14T08:10:21;19.24;51.60
66740;DHT22;53653;52.188;8.602;2023-06-14T08:12:48;18.88;52.52
66740;DHT22;53653;52.188;8.602;2023-06-14T08:15:16;19.47;50.69
66740;DHT22;53653;52.188;8.602;2023-06-14T08:17:45;19.23;51.68
66740;DHT22;53653;52.188;8.602;2023-06-14T08:20:11;19.66;50.86
66740;DHT22;53653;52.188;8.602;2023-06-14T08:22:37;19.74;51.39
66740;DHT22;53653;52.188;8.602;2023-06-14T08:25:03;19.91;50.79
66740;DHT22;53653;52.188;8.602;2023-06-14T08:27:30;19.61;51.62
66740;DHT22;53653;52.188;8.602;2023-06-14T08:29:55;20.30;49.98
66740;DHT22;53653;52.188;8.602;2023-06-14T08:32:22;20.35;49.41
66740;DHT22;53653;52.188;8.602;2023-06-14T08:34:48;20.01;50.63
66740;DHT22;53653;52.188;8.602;2023-06-14T08:37:13;19.60;50.85
66740;DHT22;53653;52.188;8.602;2023-06-14T08:39:39;20.24;50.05
66740;DHT22;53653;52.188;8.602;2023-06-14T08:42:05;20.22;50.45
66740;DHT22;53653;52.188;8.602;2023-06-14T08:44:33;20.76;48.55
66740;DHT22;53653;52.188;8.602;2023-06-14T08:46:59;19.99;50.37
66740;DHT22;53653;52.188;8.602;2023-06-14T08:49:25;19.85;50.68
66740;DHT22;53653;52.188;8.602;2023-06-14T08:51:57;20.12;49.38
66740;DHT22;53653;52.188;8.602;2023-06-14T08:54:23;20.19;49.46
66740;DHT22;53653;52.188;8.602;2023-06-14T08:56:53;20.05;50.07
66740;DHT22;53653;52.188;8.602;2023-06-14T08:59:26;20.12;50.36
66740;DHT22;53653;52.188;8.602;2023-06-14T09:01:53;20.43;49.26
66740;DHT22;53653;52.188;8.602;2023-06-14T09:04:20;20.37;48.13
66740;DHT22;53653;52.188;8.602;2023-06-14T09:06:47;19.98;49.00
66740;DHT22;53653;52.188;8.602;2023-06-14T09:09:21;20.29;49.35
66740;DHT22;53653;52.188;8.602;2023-06-14T09:11:49;20.77;47.73
66740;DHT22;53653;52.188;8.602;2023-06-14T09:14:15;20.81;47.07
66740;DHT22;53653;52.188;8.602;2023-06-14T09:16:41;21.11;47.24
66740;DHT22;53653;52.188;8.602;2023-06-14T09:19:07;20.81;47.83
66740;DHT22;53653;52.188;8.602;2023-06-14T09:21:35;21.53;46.90
66740;DHT22;53653;52.188;8.602;2023-06-14T09:24:05;21.08;47.08
66740;DHT22;53653;52.188;8.602;2023-06-14T09:26:31;20.83;47.02
66740;DHT22;53653;52.188;8.602;2023-06-14T09:28:57;21.45;46.48
66740;DHT22;53653;52.188;8.602;2023-06-14T09:31:22;20.88;47.40
66740;DHT22;53653;52.188;8.602;2023-06-14T09:33:49;20.91;47.78
66740;DHT22;53653;52.188;8.602;2023-06-14T09:36:21;21.28;47.16
66740;DHT22;53653;52.188;8.602;2023-06-14T09:39:03;21.51;45.83
66740;DHT22;53653;52.188;8.602;2023-06-14T09:41:38;21.52;45.13
66740;DHT22;53653;52.188;8.602;2023-06-14T09:44:06;21.56;45.06
66740;DHT22;53653;52.188;8.602;2023-06-14T09:46:32;20.81;46.94
66740;DHT22;53653;52.188;8.602;2023-06-14T09:48:58;21.21;46.42
66740;DHT22;53653;52.188;8.602;2023-06-14T09:51:25;21.00;46.71
66740;DHT22;53653;52.188;8.602;2023-06-14T09:53:52;21.27;46.67
66740;DHT22;53653;52.188;8.602;2023-06-14T09:56:28;21.14;46.70
66740;DHT22;53653;52.188;8.602;2023-06-14T09:58:56;21.25;46.19
66740;DHT22;53653;52.188;8.602;2023-06-14T10:01:27;21.03;47.48
66740;DHT22;53653;52.188;8.602;2023-06-14T10:03:58;21.58;46.77
66740;DHT22;53653;52.188;8.602;2023-06-14T10:06:28;21.90;45.75
66740;DHT22;53653;52.188;8.602;2023-06-14T10:08:57;21.24;47.97
66740;DHT22;53653;52.188;8.602;2023-06-14T10:11:23;21.96;46.85
66740;DHT22;53653;52.188;8.602;2023-06-14T10:13:50;22.24;45.55
66740;DHT22;53653;52.188;8.602;2023-06-14T10:16:20;22.38;45.86
66740;DHT22;53653;52.188;8.602;2023-06-14T10:24:07;21.75;45.80
66740;DHT22;53653;52.188;8.602;2023-06-14T10:26:33;21.97;45.51
66740;DHT22;53653;52.188;8.602;2023-06-14T10:29:01;21.89;46.46
66740;DHT22;53653;52.188;8.602;2023-06-14T10:31:49;22.10;45.25
66740;DHT22;53653;52.188;8.602;2023-06-14T10:34:23;22.24;44.66
66740;DHT22;53653;52.188;8.602;2023-06-14T10:37:00;22.84;44.25
66740;DHT22;53653;52.188;8.602;2023-06-14T10:39:28;22.24;45.37
66740;DHT22;53653;52.188;8.602;2023-06-14T10:41:55;22.24;45.02
66740;DHT22;53653;52.188;8.602;2023-06-14T10:49:16;22.36;44.14
66740;DHT22;53653;52.188;8.602;2023-06-14T10:51:51;21.85;44.87
66740;DHT22;53653;52.188;8.602;2023-06-14T10:54:21;22.00;45.98
66740;DHT22;53653;52.188;8.602;2023-06-14T10:56:49;22.71;44.64
66740;DHT22;53653;52.188;8.602;2023-06-14T10:59:17;22.47;43.10
66740;DHT22;53653;52.188;8.602;2023-06-14T11:01:57;22.71;43.69
66740;DHT22;53653;52.188;8.602;2023-06-14T11:04:33;22.21;44.40
66740;DHT22;53653;52.188;8.602;2023-06-14T11:07:39;22.62;44.11
66740;DHT22;53653;52.188;8.602;2023-06-14T11:12:56;22.43;43.98
66740;DHT22;53653;52.188;8.602;2023-06-14T11:15:30;22.94;43.22
66740;DHT22;53653;52.188;8.602;2023-06-14T11:17:56;23.00;43.69
66740;DHT22;53653;52.188;8.602;2023-06-14T11:20:27;22.75;42.99
66740;DHT22;53653;52.188;8.602;2023-06-14T11:22:53;22.51;43.22
66740;DHT22;53653;52.188;8.602;2023-06-14T11:25:19;22.49;43.81
66740;DHT22;53653;52.188;8.602;2023-06-14T11:27:45;22.57;44.10
66740;DHT22;53653;52.188;8.602;2023-06-14T11:30:11;23.15;43.09
66740;DHT22;53653;52.188;8.602;2023-06-14T11:32:37;22.84;43.73
66740;DHT22;53653;52.188;8.602;2023-06-14T11:35:04;22.64;41.87
66740;DHT22;53653;52.188;8.602;2023-06-14T11:37:30;23.10;41.39
66740;DHT22;53653;52.188;8.602;2023-06-14T11:39:57;22.98;41.39
66740;DHT22;53653;52.188;8.602;2023-06-14T11:42:24;23.06;41.91
66740;DHT22;53653;52.188;8.602;2023-06-14T11:44:49;22.85;41.63
66740;DHT22;53653;52.188;8.602;2023-06-14T11:47:15;23.33;41.82
66740;DHT22;53653;52.188;8.602;2023-06-14T11:49:41;23.24;41.09
66740;DHT22;53653;52.188;8.602;2023-06-14T11:52:07;23.78;40.95
66740;DHT22;53653;52.188;8.602;2023-06-14T11:54:33;23.97;40.26
66740;DHT22;53653;52.188;8.602;2023-06-14T11:56:59;23.71;40.23
66740;DHT22;53653;52.188;8.602;2023-06-14T11:59:24;23.24;41.22
66740;DHT22;53653;52.188;8.602;2023-06-14T12:01:50;23.50;40.45
66740;DHT22;53653;52.188;8.602;2023-06-14T12:04:29;23.17;41.80
66740;DHT22;53653;52.188;8.602;2023-06-14T12:06:55;23.02;42.23
66740;DHT22;53653;52.188;8.602;2023-06-14T12:09:21;23.44;41.02
66740;DHT22;53653;52.188;8.602;2023-06-14T12:11:49;23.44;41.60
66740;DHT22;53653;52.188;8.602;2023-06-14T12:14:15;23.53;41.52
66740;DHT22;53653;52.188;8.602;2023-06-14T12:16:41;23.79;41.81
66740;DHT22;53653;52.188;8.602;2023-06-14T12:19:17;24.04;40.90
66740;DHT22;53653;52.188;8.602;2023-06-14T12:21:46;24.08;41.53
66740;DHT22;53653;52.188;8.602;2023-06-14T12:24:13;23.84;41.14
66740;DHT22;53653;52.188;8.602;2023-06-14T12:26:39;23.63;41.19
66740;DHT22;53653;52.188;8.602;2023-06-14T12:29:08;23.55;40.98
66740;DHT22;53653;52.188;8.602;2023-06-14T12:31:34;23.53;41.60
66740;DHT22;53653;52.188;8.602;2023-06-14T12:33:59;23.10;42.60
66740;DHT22;53653;52.188;8.602;2023-06-14T12:36:25;22.68;43.76
66740;DHT22;53653;52.188;8.602;2023-06-14T12:38:51;23.15;42.72
66740;DHT22;53653;52.188;8.602;2023-06-14T12:41:21;23.61;41.90
66740;DHT22;53653;52.188;8.602;2023-06-14T12:43:47;23.26;42.35
66740;DHT22;53653;52.188;8.602;2023-06-14T12:46:13;23.31;42.27
66740;DHT22;53653;52.188;8.602;2023-06-14T12:48:39;24.00;41.08
66740;DHT22;53653;52.188;8.602;2023-06-14T12:51:04;24.30;40.85
66740;DHT22;53653;52.188;8.602;2023-06-14T12:53:30;23.55;41.71
66740;DHT22;53653;52.188;8.602;2023-06-14T12:55:56;22.88;42.80
66740;DHT22;53653;52.188;8.602;2023-06-14T12:58:21;23.23;42.84
66740;DHT22;53653;52.188;8.602;2023-06-14T13:00:49;23.54;41.86
66740;DHT22;53653;52.188;8.602;2023-06-14T13:03:14;23.67;41.95
66740;DHT22;53653;52.188;8.602;2023-06-14T13:05:40;23.47;42.18
66740;DHT22;53653;52.188;8.602;2023-06-14T13:08:07;23.61;42.43
66740;DHT22;53653;52.188;8.602;2023-06-14T13:10:34;23.65;42.30
66740;DHT22;53653;52.188;8.602;2023-06-14T13:13:00;23.92;41.33
66740;DHT22;53653;52.188;8.602;2023-06-14T13:15:26;23.55;42.32
66740;DHT22;53653;52.188;8.602;2023-06-14T13:17:52;23.31;43.02
66740;DHT22;53653;52.188;8.602;2023-06-14T13:20:18;24.19;41.36
66740;DHT22;53653;52.188;8.602;2023-06-14T13:22:43;24.05;41.55
66740;DHT22;53653;52.188;8.602;2023-06-14T13:25:09;23.61;42.61
66740;DHT22;53653;52.188;8.602;2023-06-14T13:27:35;23.40;42.85
66740;DHT22;53653;52.188;8.602;2023-06-14T13:30:00;24.00;41.85
66740;DHT22;53653;52.188;8.602;2023-06-14T13:32:26;23.67;41.96
66740;DHT22;53653;52.188;8.602;2023-06-14T13:34:52;24.02;41.18
66740;DHT22;53653;52.188;8.602;2023-06-14T13:37:17;23.64;42.03
66740;DHT22;53653;52.188;8.602;2023-06-14T13:39:43;24.06;41.68
66740;DHT22;53653;52.188;8.602;2023-06-14T13:42:08;24.39;41.17
66740;DHT22;53653;52.188;8.602;2023-06-14T13:44:34;23.85;42.23
66740;DHT22;53653;52.188;8.602;2023-06-14T13:47:00;24.00;41.83
66740;DHT22;53653;52.188;8.602;2023-06-14T13:49:25;24.22;41.67
66740;DHT22;53653;52.188;8.602;2023-06-14T13:51:51;23.81;41.61
66740;DHT22;53653;52.188;8.602;2023-06-14T13:54:19;23.55;42.33
66740;DHT22;53653;52.188;8.602;2023-06-14T13:56:45;23.88;42.74
66740;DHT22;53653;52.188;8.602;2023-06-14T13:59:11;24.39;41.70
66740;DHT22;53653;52.188;8.602;2023-06-14T14:01:37;24.25;40.25
66740;DHT22;53653;52.188;8.602;2023-06-14T14:04:03;24.66;40.52
66740;DHT22;53653;52.188;8.602;2023-06-14T14:06:28;24.06;40.75
66740;DHT22;53653;52.188;8.602;2023-06-14T14:08:54;23.91;41.10
66740;DHT22;53653;52.188;8.602;2023-06-14T14:11:20;24.39;40.37
66740;DHT22;53653;52.188;8.602;2023-06-14T14:13:46;24.12;41.48
66740;DHT22;53653;52.188;8.602;2023-06-14T14:16:13;24.42;41.21
66740;DHT22;53653;52.188;8.602;2023-06-14T14:18:38;23.86;41.88
66740;DHT22;53653;52.188;8.602;2023-06-14T14:21:04;23.75;42.74
66740;DHT22;53653;52.188;8.602;2023-06-14T14:23:29;24.00;42.54
66740;DHT22;53653;52.188;8.602;2023-06-14T14:25:55;23.92;42.11
66740;DHT22;53653;52.188;8.602;2023-06-14T14:28:21;24.21;41.93
66740;DHT22;53653;52.188;8.602;2023-06-14T14:30:47;24.00;42.25
66740;DHT22;53653;52.188;8.602;2023-06-14T14:33:13;23.81;42.48
66740;DHT22;53653;52.188;8.602;2023-06-14T14:35:44;23.58;43.09
66740;DHT22;53653;52.188;8.602;2023-06-14T14:38:16;24.00;42.35
66740;DHT22;53653;52.188;8.602;2023-06-14T14:40:43;24.21;42.22
66740;DHT22;53653;52.188;8.602;2023-06-14T14:43:09;23.84;42.77
66740;DHT22;53653;52.188;8.602;2023-06-14T14:45:35;24.09;42.69
66740;DHT22;53653;52.188;8.602;2023-06-14T14:48:00;24.42;42.41
66740;DHT22;53653;52.188;8.602;2023-06-14T14:50:26;24.19;42.07
66740;DHT22;53653;52.188;8.602;2023-06-14T14:52:52;24.37;41.84
66740;DHT22;53653;52.188;8.602;2023-06-14T14:55:17;24.26;41.87
66740;DHT22;53653;52.188;8.602;2023-06-14T14:57:43;24.21;41.71
66740;DHT22;53653;52.188;8.602;2023-06-14T15:00:09;24.23;42.08
66740;DHT22;53653;52.188;8.602;2023-06-14T15:02:35;24.22;41.29
66740;DHT22;53653;52.188;8.602;2023-06-14T15:05:01;24.59;40.85
66740;DHT22;53653;52.188;8.602;2023-06-14T15:07:27;24.60;41.25
66740;DHT22;53653;52.188;8.602;2023-06-14T15:09:54;24.18;41.61
66740;DHT22;53653;52.188;8.602;2023-06-14T15:12:19;23.97;42.39
66740;DHT22;53653;52.188;8.602;2023-06-14T15:14:50;24.30;41.61
66740;DHT22;53653;52.188;8.602;2023-06-14T15:17:16;24.40;41.19
66740;DHT22;53653;52.188;8.602;2023-06-14T15:19:41;24.21;41.88
66740;DHT22;53653;52.188;8.602;2023-06-14T15:22:07;24.08;42.53
66740;DHT22;53653;52.188;8.602;2023-06-14T15:24:32;23.97;42.80
66740;DHT22;53653;52.188;8.602;2023-06-14T15:26:58;24.19;42.96
66740;DHT22;53653;52.188;8.602;2023-06-14T15:29:23;24.30;41.68
66740;DHT22;53653;52.188;8.602;2023-06-14T15:31:49;24.01;41.99
66740;DHT22;53653;52.188;8.602;2023-06-14T15:34:15;23.85;42.66
66740;DHT22;53653;52.188;8.602;2023-06-14T15:36:40;24.11;42.81
66740;DHT22;53653;52.188;8.602;2023-06-14T15:39:06;24.05;42.70
66740;DHT22;53653;52.188;8.602;2023-06-14T15:41:32;24.44;42.44
66740;DHT22;53653;52.188;8.602;2023-06-14T15:43:57;24.11;43.33
66740;DHT22;53653;52.188;8.602;2023-06-14T15:46:23;24.01;43.65